createdAt,value
2019-03-13T00:00:37.903Z,62.60
2019-03-13T00:03:04.163Z,63.00
2019-03-13T00:05:30.205Z,63.30
2019-03-13T00:07:56.157Z,63.00
2019-03-13T00:10:22.091Z,61.60
2019-03-13T00:12:48.143Z,61.10
2019-03-13T00:15:14.570Z,61.90
2019-03-13T00:17:40.520Z,61.40
2019-03-13T00:20:07.628Z,60.40
2019-03-13T00:22:33.624Z,61.50
2019-03-13T00:24:59.563Z,61.20
2019-03-13T00:27:25.511Z,60.60
2019-03-13T00:29:51.474Z,60.50
2019-03-13T00:32:17.823Z,60.70
2019-03-13T00:34:43.754Z,61.10
2019-03-13T00:37:09.699Z,61.10
2019-03-13T00:39:35.744Z,60.80
2019-03-13T00:42:01.711Z,62.30
2019-03-13T00:44:27.643Z,64.20
2019-03-13T00:46:53.599Z,64.00
2019-03-13T00:49:19.535Z,63.60
2019-03-13T00:51:45.491Z,63.40
2019-03-13T00:54:11.455Z,63.70
2019-03-13T00:56:37.400Z,62.20
2019-03-13T00:59:03.359Z,62.90
2019-03-13T01:01:31.209Z,60.30
2019-03-13T01:03:59.064Z,59.40
2019-03-13T01:06:26.916Z,59.30
2019-03-13T01:08:52.863Z,58.50
2019-03-13T01:14:41.275Z,58.30
2019-03-13T01:17:08.046Z,59.00
2019-03-13T01:19:33.999Z,58.20
2019-03-13T01:21:59.940Z,57.80
2019-03-13T01:24:25.983Z,59.30
2019-03-13T01:26:51.951Z,57.60
2019-03-13T01:29:17.904Z,57.00
2019-03-13T01:31:45.759Z,57.70
2019-03-13T01:34:30.099Z,58.60
2019-03-13T01:36:56.034Z,62.60
2019-03-13T01:39:21.995Z,65.90
2019-03-13T01:41:47.952Z,68.80
2019-03-13T01:44:13.912Z,70.40
2019-03-13T01:46:39.848Z,73.30
2019-03-13T01:49:05.798Z,74.30
2019-03-13T01:51:31.730Z,75.60
2019-03-13T01:53:57.703Z,75.70
2019-03-13T01:56:23.766Z,75.80
2019-03-13T01:58:49.718Z,76.00
2019-03-13T02:01:15.661Z,76.20
2019-03-13T02:03:41.615Z,76.70
2019-03-13T02:06:07.551Z,76.70
2019-03-13T02:08:33.515Z,77.20
2019-03-13T02:10:59.450Z,78.00
2019-03-13T02:13:25.419Z,78.50
2019-03-13T02:15:51.368Z,79.00
2019-03-13T02:18:17.315Z,79.80
2019-03-13T02:20:43.259Z,81.00
2019-03-13T02:23:09.191Z,81.20
2019-03-13T02:28:44.866Z,83.60
2019-03-13T02:31:10.812Z,85.00
2019-03-13T02:33:36.778Z,85.60
2019-03-13T02:36:02.723Z,86.60
2019-03-13T02:38:28.750Z,87.40
2019-03-13T02:40:54.683Z,88.70
2019-03-13T02:43:20.627Z,90.30
2019-03-13T02:45:46.596Z,91.00
2019-03-13T02:54:21.128Z,95.10
2019-03-13T02:56:47.068Z,97.40
2019-03-13T02:59:13.023Z,99.90
2019-03-13T03:01:40.871Z,99.90
2019-03-13T03:04:07.624Z,99.90
2019-03-13T03:06:33.556Z,99.90
2019-03-13T03:08:59.524Z,99.90
2019-03-13T03:11:25.478Z,99.90
2019-03-13T03:13:51.407Z,99.90
2019-03-13T03:16:17.361Z,99.90
2019-03-13T03:18:43.296Z,99.90
2019-03-13T03:21:09.252Z,99.90
2019-03-13T03:23:35.221Z,99.90
2019-03-13T03:26:01.276Z,99.90
2019-03-13T03:28:27.304Z,99.90
2019-03-13T03:30:53.344Z,99.90
2019-03-13T03:33:19.300Z,99.90
2019-03-13T03:35:45.256Z,99.90
2019-03-13T03:38:11.216Z,99.90
2019-03-13T03:40:37.170Z,99.90
2019-03-13T03:43:03.231Z,99.90
2019-03-13T03:48:39.082Z,99.90
2019-03-13T03:51:05.024Z,99.90
2019-03-13T03:53:30.963Z,99.90
2019-03-13T03:55:56.903Z,99.90
2019-03-13T03:58:22.853Z,99.90
2019-03-13T04:00:48.785Z,99.90
2019-03-13T04:03:14.760Z,99.90
2019-03-13T04:05:40.890Z,99.90
2019-03-13T04:08:06.866Z,99.90
2019-03-13T04:10:32.908Z,99.90
2019-03-13T04:12:58.844Z,99.90
2019-03-13T04:15:24.787Z,99.90
2019-03-13T04:17:50.736Z,99.90
2019-03-13T04:20:16.785Z,99.90
2019-03-13T04:22:42.719Z,99.90
2019-03-13T04:25:12.685Z,99.90
2019-03-13T04:27:38.823Z,99.90
2019-03-13T04:30:06.773Z,99.90
2019-03-13T04:32:32.750Z,99.90
2019-03-13T04:34:58.787Z,99.90
2019-03-13T04:37:24.735Z,99.90
2019-03-13T04:39:50.681Z,99.90
2019-03-13T04:42:16.646Z,99.90
2019-03-13T04:44:42.708Z,99.90
2019-03-13T04:47:08.749Z,99.90
2019-03-13T04:49:34.691Z,99.90
2019-03-13T04:52:00.682Z,99.90
2019-03-13T04:54:26.726Z,99.90
2019-03-13T04:56:52.666Z,99.90
2019-03-13T04:59:18.628Z,99.90
2019-03-13T05:01:44.559Z,99.90
2019-03-13T05:04:10.523Z,99.90
2019-03-13T05:06:36.463Z,99.90
2019-03-13T05:09:04.344Z,99.90
2019-03-13T05:11:30.287Z,99.90
2019-03-13T05:13:56.315Z,99.90
2019-03-13T05:16:22.263Z,99.90
2019-03-13T05:18:48.190Z,99.90
2019-03-13T05:21:14.134Z,99.90
2019-03-13T05:23:40.067Z,99.90
2019-03-13T05:26:06.029Z,99.90
2019-03-13T05:28:32.053Z,99.90
2019-03-13T05:30:58.094Z,99.90
2019-03-13T05:33:24.038Z,99.90
2019-03-13T05:35:49.979Z,99.90
2019-03-13T05:38:15.928Z,99.90
2019-03-13T05:40:41.885Z,99.90
2019-03-13T05:43:07.833Z,99.90
2019-03-13T05:45:33.771Z,99.90
2019-03-13T05:47:59.727Z,99.90
2019-03-13T05:50:25.658Z,99.90
2019-03-13T05:52:51.623Z,99.90
2019-03-13T05:55:17.643Z,99.90
2019-03-13T05:57:43.578Z,99.90
2019-03-13T06:00:16.464Z,99.90
2019-03-13T06:02:42.466Z,99.90
2019-03-13T06:05:08.413Z,99.90
2019-03-13T06:07:34.379Z,99.90
2019-03-13T06:10:00.547Z,99.90
2019-03-13T06:12:26.639Z,99.90
2019-03-13T06:14:52.586Z,99.90
2019-03-13T06:17:18.543Z,99.90
2019-03-13T06:19:44.471Z,99.90
2019-03-13T06:22:10.419Z,99.90
2019-03-13T06:24:36.358Z,99.90
2019-03-13T06:27:02.329Z,99.90
2019-03-13T06:29:31.492Z,99.90
2019-03-13T06:31:56.223Z,99.90
2019-03-13T06:34:22.198Z,99.90
2019-03-13T06:36:48.238Z,99.90
2019-03-13T06:39:14.175Z,99.90
2019-03-13T06:41:40.106Z,99.90
2019-03-13T06:44:06.061Z,99.90
2019-03-13T06:46:32.101Z,99.90
2019-03-13T06:48:58.071Z,99.90
2019-03-13T06:57:21.291Z,99.90
2019-03-13T07:00:01.204Z,99.90
2019-03-13T07:02:29.047Z,99.90
2019-03-13T07:05:02.998Z,99.90
2019-03-13T07:07:30.847Z,99.90
2019-03-13T07:09:58.704Z,99.90
2019-03-13T07:12:26.562Z,99.90
2019-03-13T07:15:06.519Z,99.90
2019-03-13T07:17:34.369Z,99.90
2019-03-13T07:20:02.220Z,99.90
2019-03-13T07:22:46.565Z,99.90
2019-03-13T07:25:14.419Z,99.90
2019-03-13T07:27:45.165Z,99.90
2019-03-13T07:30:13.099Z,99.90
2019-03-13T07:32:56.733Z,99.90
2019-03-13T07:35:36.818Z,99.90
2019-03-13T07:38:21.315Z,99.90
2019-03-13T07:41:04.434Z,99.90
2019-03-13T07:43:32.392Z,99.90
2019-03-13T07:46:16.994Z,99.90
2019-03-13T07:48:44.858Z,99.90
2019-03-13T07:51:15.331Z,99.90
2019-03-13T07:53:54.919Z,99.90
2019-03-13T07:56:28.693Z,99.90
2019-03-13T07:59:11.717Z,99.90
2019-03-13T08:01:48.417Z,99.90
2019-03-13T08:04:16.271Z,99.90
2019-03-13T08:06:46.802Z,99.90
2019-03-13T08:09:14.747Z,99.90
2019-03-13T08:11:48.595Z,99.90
2019-03-13T08:14:16.431Z,99.90
2019-03-13T08:16:44.289Z,99.90
2019-03-13T08:25:33.060Z,99.90
2019-03-13T08:28:03.888Z,99.90
2019-03-13T08:30:31.734Z,99.90
2019-03-13T08:32:59.687Z,99.90
2019-03-13T08:35:27.552Z,99.90
2019-03-13T08:37:58.138Z,99.90
2019-03-13T08:40:28.910Z,99.90
2019-03-13T08:42:56.792Z,99.90
2019-03-13T08:45:36.647Z,99.90
2019-03-13T08:48:10.620Z,99.90
2019-03-13T08:50:47.359Z,99.90
2019-03-13T08:53:21.266Z,99.90
2019-03-13T08:55:49.140Z,99.90
2019-03-13T08:58:23.119Z,99.90
2019-03-13T09:01:06.223Z,99.90
2019-03-13T09:03:36.611Z,99.90
2019-03-13T09:06:21.319Z,99.90
2019-03-13T09:08:49.171Z,99.90
2019-03-13T09:11:28.982Z,99.90
2019-03-13T09:14:14.880Z,99.90
2019-03-13T09:16:54.924Z,99.90
2019-03-13T09:19:22.797Z,99.90
2019-03-13T09:22:08.636Z,99.90
2019-03-13T09:24:45.271Z,99.90
2019-03-13T09:27:19.063Z,99.90
2019-03-13T09:30:03.918Z,99.90
2019-03-13T09:32:31.748Z,99.90
2019-03-13T09:35:02.412Z,99.90
2019-03-13T09:37:36.040Z,99.90
2019-03-13T09:40:05.001Z,99.90
2019-03-13T09:42:38.592Z,99.90
2019-03-13T09:45:17.203Z,99.90
2019-03-13T09:47:50.794Z,99.90
2019-03-13T09:50:35.218Z,99.90
2019-03-13T09:53:05.922Z,99.90
2019-03-13T09:55:50.408Z,99.90
2019-03-13T09:58:35.007Z,99.90
2019-03-13T10:01:02.865Z,99.90
2019-03-13T10:03:36.614Z,99.90
2019-03-13T10:06:22.445Z,99.90
2019-03-13T10:09:07.190Z,99.90
2019-03-13T10:11:40.981Z,99.90
2019-03-13T10:14:08.891Z,99.90
2019-03-13T10:16:53.624Z,99.90
2019-03-13T10:19:27.359Z,99.90
2019-03-13T10:22:07.191Z,99.90
2019-03-13T10:24:43.839Z,99.90
2019-03-13T10:27:11.686Z,99.90
2019-03-13T10:35:27.278Z,99.90
2019-03-13T10:37:57.681Z,99.90
2019-03-13T10:40:40.746Z,99.90
2019-03-13T10:43:25.412Z,99.90
2019-03-13T10:46:08.342Z,99.90
2019-03-13T10:48:48.518Z,99.90
2019-03-13T10:51:16.418Z,99.10
2019-03-13T10:53:47.132Z,98.40
2019-03-13T10:56:17.951Z,97.10
2019-03-13T10:58:51.574Z,98.20
2019-03-13T11:01:36.235Z,98.40
2019-03-13T11:04:22.451Z,96.60
2019-03-13T11:06:56.412Z,97.30
2019-03-13T11:12:13.454Z,95.20
2019-03-13T11:14:58.266Z,95.90
2019-03-13T11:17:32.019Z,93.40
2019-03-13T11:20:02.566Z,93.20
2019-03-13T11:22:39.572Z,92.60
2019-03-13T11:25:14.662Z,92.40
2019-03-13T11:27:42.508Z,93.90
2019-03-13T11:30:12.251Z,96.00
2019-03-13T11:32:40.139Z,97.30
2019-03-13T11:35:13.935Z,98.40
2019-03-13T11:37:50.510Z,99.10
2019-03-13T11:40:34.916Z,98.40
2019-03-13T11:49:23.563Z,99.20
2019-03-13T11:51:51.419Z,99.90
2019-03-13T11:54:19.278Z,99.90
2019-03-13T11:56:47.115Z,99.90
2019-03-13T11:59:14.967Z,99.90
2019-03-13T12:01:46.084Z,99.90
2019-03-13T12:04:18.333Z,99.90
2019-03-13T12:06:58.203Z,99.90
2019-03-13T12:09:28.748Z,99.90
2019-03-13T12:12:13.050Z,99.90
2019-03-13T12:14:49.822Z,99.90
2019-03-13T12:17:17.675Z,99.90
2019-03-13T12:19:51.674Z,99.90
2019-03-13T12:22:19.551Z,99.90
2019-03-13T12:24:50.122Z,99.90
2019-03-13T12:27:24.152Z,99.90
2019-03-13T12:30:04.211Z,99.90
2019-03-13T12:32:34.791Z,99.90
2019-03-13T12:35:02.618Z,99.90
2019-03-13T12:37:33.344Z,99.90
2019-03-13T12:40:01.187Z,99.90
2019-03-13T12:42:31.998Z,99.90
2019-03-13T12:45:02.454Z,99.90
2019-03-13T12:47:36.229Z,99.90
2019-03-13T12:50:10.499Z,99.90
2019-03-13T12:52:38.355Z,99.90
2019-03-13T12:55:19.045Z,99.90
2019-03-13T12:57:59.231Z,99.90
2019-03-13T13:00:33.135Z,99.90
2019-03-13T13:03:17.653Z,99.90
2019-03-13T13:06:03.767Z,99.90
2019-03-13T13:08:49.955Z,99.90
2019-03-13T13:11:20.650Z,99.90
2019-03-13T13:14:06.442Z,99.90
2019-03-13T13:16:34.278Z,99.90
2019-03-13T13:19:00.235Z,99.90
2019-03-13T13:21:26.174Z,99.90
2019-03-13T13:23:52.120Z,99.90
2019-03-13T13:26:18.277Z,99.90
2019-03-13T13:28:44.219Z,99.90
2019-03-13T13:31:10.267Z,99.90
2019-03-13T13:33:36.210Z,99.90
2019-03-13T13:36:02.180Z,99.90
2019-03-13T13:38:28.964Z,99.90
2019-03-13T13:40:55.004Z,99.90
2019-03-13T13:43:20.954Z,98.90
2019-03-13T13:45:48.395Z,97.30
2019-03-13T13:48:14.347Z,99.50
2019-03-13T13:50:40.276Z,97.30
2019-03-13T13:53:06.218Z,96.20
2019-03-13T13:55:32.172Z,98.70
2019-03-13T13:57:58.122Z,98.20
2019-03-13T14:00:24.065Z,99.90
2019-03-13T14:02:49.998Z,99.90
2019-03-13T14:05:15.942Z,99.90
2019-03-13T14:07:41.887Z,99.90
2019-03-13T14:10:08.556Z,99.90
2019-03-13T14:12:34.498Z,99.90
2019-03-13T14:15:00.493Z,99.90
2019-03-13T14:17:26.474Z,99.90
2019-03-13T14:19:52.407Z,99.90
2019-03-13T14:22:18.333Z,99.90
2019-03-13T14:24:44.303Z,99.90
2019-03-13T14:27:14.796Z,99.90
2019-03-13T14:29:38.154Z,99.90
2019-03-13T14:32:04.108Z,99.90
2019-03-13T14:34:30.145Z,99.90
2019-03-13T14:36:56.087Z,99.90
2019-03-13T14:39:22.032Z,99.90
2019-03-13T14:41:50.272Z,99.90
2019-03-13T14:44:16.235Z,99.90
2019-03-13T14:46:42.187Z,99.90
2019-03-13T14:49:08.127Z,99.90
2019-03-13T14:51:34.077Z,99.90
2019-03-13T14:54:00.016Z,99.20
2019-03-13T14:56:25.948Z,96.40
2019-03-13T14:58:51.897Z,95.60
2019-03-13T15:01:17.830Z,96.80
2019-03-13T15:03:43.782Z,98.90
2019-03-13T15:06:09.715Z,99.90
2019-03-13T15:08:35.660Z,99.90
2019-03-13T15:11:01.595Z,99.90
2019-03-13T15:13:27.553Z,99.90
2019-03-13T15:15:53.481Z,99.90
2019-03-13T15:18:19.406Z,99.90
2019-03-13T15:20:45.354Z,99.90
2019-03-13T15:23:11.292Z,99.90
2019-03-13T15:25:37.247Z,99.90
2019-03-13T15:28:03.177Z,99.90
2019-03-13T15:30:29.705Z,99.90
2019-03-13T15:32:55.671Z,99.90
2019-03-13T15:35:21.606Z,99.90
2019-03-13T15:37:47.557Z,99.20
2019-03-13T15:40:15.389Z,96.80
2019-03-13T15:42:41.333Z,96.00
2019-03-13T15:45:08.872Z,94.10
2019-03-13T15:47:34.897Z,93.30
2019-03-13T15:50:00.912Z,93.00
2019-03-13T15:52:26.855Z,91.00
2019-03-13T15:54:52.800Z,90.00
2019-03-13T15:57:18.741Z,90.00
2019-03-13T15:59:44.795Z,89.80
2019-03-13T16:02:10.751Z,90.50
2019-03-13T16:04:36.695Z,90.20
2019-03-13T16:07:02.755Z,88.70
2019-03-13T16:09:28.775Z,88.90
2019-03-13T16:11:54.708Z,91.30
2019-03-13T16:14:20.658Z,90.70
2019-03-13T16:16:46.635Z,90.60
2019-03-13T16:19:12.606Z,91.90
2019-03-13T16:21:38.551Z,94.10
2019-03-13T16:24:04.505Z,95.50
2019-03-13T16:26:30.456Z,96.20
2019-03-13T16:28:56.408Z,97.30
2019-03-13T16:31:22.439Z,98.30
2019-03-13T16:33:48.390Z,99.50
2019-03-13T16:36:14.443Z,99.90
2019-03-13T16:38:40.371Z,99.90
2019-03-13T16:41:06.327Z,99.90
2019-03-13T16:43:32.263Z,99.90
2019-03-13T16:45:58.208Z,99.90
2019-03-13T16:48:24.160Z,99.90
2019-03-13T16:50:50.106Z,99.90
2019-03-13T16:53:16.037Z,99.90
2019-03-13T16:55:41.982Z,99.90
2019-03-13T16:58:07.923Z,99.90
2019-03-13T17:00:34.177Z,99.90
2019-03-13T17:03:00.107Z,99.90
2019-03-13T17:05:26.050Z,99.90
2019-03-13T17:07:51.999Z,99.90
2019-03-13T17:10:19.037Z,99.90
2019-03-13T17:12:44.971Z,99.90
2019-03-13T17:15:14.962Z,99.90
2019-03-13T17:17:40.903Z,99.90
2019-03-13T17:20:08.767Z,99.90
2019-03-13T17:22:34.703Z,99.90
2019-03-13T17:25:00.678Z,99.90
2019-03-13T17:27:26.620Z,99.90
2019-03-13T17:29:52.566Z,99.90
2019-03-13T17:32:18.498Z,99.90
2019-03-13T17:34:44.467Z,99.90
2019-03-13T17:37:10.402Z,99.90
2019-03-13T17:39:36.347Z,99.90
2019-03-13T17:42:02.297Z,99.90
2019-03-13T17:44:28.346Z,99.90
2019-03-13T17:46:54.312Z,99.90
2019-03-13T17:49:20.357Z,99.90
2019-03-13T17:51:48.316Z,99.90
2019-03-13T17:54:14.183Z,99.90
2019-03-13T17:56:40.131Z,99.90
2019-03-13T17:59:06.185Z,99.90
2019-03-13T18:01:32.139Z,99.90
2019-03-13T18:03:58.163Z,99.90
2019-03-13T18:06:24.130Z,99.90
2019-03-13T18:08:50.071Z,99.90
2019-03-13T18:11:15.998Z,99.90
2019-03-13T18:13:41.955Z,99.90
2019-03-13T18:16:07.962Z,99.90
2019-03-13T18:18:33.931Z,99.90
2019-03-13T18:20:59.890Z,99.90
2019-03-13T18:23:25.819Z,99.90
2019-03-13T18:25:51.754Z,99.90
2019-03-13T18:28:17.705Z,99.90
2019-03-13T18:30:43.636Z,99.90
2019-03-13T18:33:09.567Z,99.90
2019-03-13T18:35:35.518Z,99.90
2019-03-13T18:38:01.464Z,99.90
2019-03-13T18:40:27.438Z,99.90
2019-03-13T18:42:53.563Z,99.90
2019-03-13T18:45:23.583Z,99.90
2019-03-13T18:47:49.626Z,99.90
2019-03-13T18:50:16.175Z,99.90
2019-03-13T18:52:42.410Z,99.90
2019-03-13T18:55:09.658Z,99.90
2019-03-13T18:57:35.584Z,99.90
2019-03-13T19:00:02.729Z,99.90
2019-03-13T19:02:28.666Z,99.90
2019-03-13T19:04:57.514Z,99.90
2019-03-13T19:07:22.450Z,99.90
2019-03-13T19:09:48.404Z,99.90
2019-03-13T19:12:14.355Z,99.90
2019-03-13T19:14:40.297Z,99.90
2019-03-13T19:17:06.296Z,99.90
2019-03-13T19:19:32.309Z,99.90
2019-03-13T19:21:58.250Z,99.90
2019-03-13T19:24:24.184Z,99.90
2019-03-13T19:26:50.120Z,99.90
2019-03-13T19:29:16.041Z,99.90
2019-03-13T19:31:41.982Z,99.90
2019-03-13T19:34:07.912Z,99.90
2019-03-13T19:36:33.840Z,99.90
2019-03-13T19:38:59.765Z,99.90
2019-03-13T19:41:25.701Z,99.90
2019-03-13T19:43:51.627Z,99.90
2019-03-13T19:46:17.562Z,99.90
2019-03-13T19:48:43.484Z,99.90
2019-03-13T19:51:09.434Z,99.90
2019-03-13T19:53:35.369Z,99.90
2019-03-13T19:56:01.459Z,99.90
2019-03-13T19:58:27.383Z,99.90
2019-03-13T20:00:53.340Z,99.90
2019-03-13T20:03:19.309Z,99.90
2019-03-13T20:05:46.625Z,99.90
2019-03-13T20:08:13.905Z,99.90
2019-03-13T20:10:40.318Z,99.90
2019-03-13T20:13:06.262Z,99.90
2019-03-13T20:15:33.307Z,99.90
2019-03-13T20:17:59.258Z,99.90
2019-03-13T20:20:25.210Z,99.90
2019-03-13T20:22:52.348Z,99.90
2019-03-13T20:25:18.441Z,99.90
2019-03-13T20:27:44.439Z,99.90
2019-03-13T20:36:01.749Z,99.90
2019-03-13T20:38:27.794Z,99.90
2019-03-13T20:40:53.747Z,99.90
2019-03-13T20:43:19.686Z,99.90
2019-03-13T20:45:45.655Z,99.90
2019-03-13T20:48:11.591Z,99.90
2019-03-13T20:50:38.186Z,99.90
2019-03-13T20:53:04.431Z,99.90
2019-03-13T20:55:30.370Z,99.90
2019-03-13T20:57:56.328Z,99.90
2019-03-13T21:00:23.267Z,99.90
2019-03-13T21:02:49.638Z,99.90
2019-03-13T21:05:15.694Z,99.90
2019-03-13T21:07:41.750Z,99.90
2019-03-13T21:10:08.997Z,99.90
2019-03-13T21:12:35.005Z,99.90
2019-03-13T21:15:00.930Z,99.90
2019-03-13T21:17:26.885Z,99.90
2019-03-13T21:19:52.939Z,99.90
2019-03-13T21:22:18.863Z,99.90
2019-03-13T21:24:44.791Z,99.90
2019-03-13T21:27:10.752Z,99.90
2019-03-13T21:29:36.669Z,99.90
2019-03-13T21:32:02.601Z,99.90
2019-03-13T21:34:28.646Z,99.90
2019-03-13T21:36:54.632Z,99.90
2019-03-13T21:39:20.578Z,99.90
2019-03-13T21:41:46.516Z,99.90
2019-03-13T21:44:12.473Z,99.90
2019-03-13T21:46:38.402Z,99.90
2019-03-13T21:49:06.776Z,99.90
2019-03-13T21:51:32.273Z,99.90
2019-03-13T21:53:58.323Z,99.90
2019-03-13T21:56:24.364Z,99.90
2019-03-13T21:58:50.327Z,99.90
2019-03-13T22:01:20.047Z,99.90
2019-03-13T22:03:44.239Z,99.90
2019-03-13T22:06:10.198Z,99.90
2019-03-13T22:08:36.134Z,99.90
2019-03-13T22:11:02.082Z,99.90
2019-03-13T22:13:28.019Z,99.90
2019-03-13T22:22:02.894Z,99.90
2019-03-13T22:24:28.830Z,99.90
2019-03-13T22:26:54.790Z,99.90
2019-03-13T22:29:20.830Z,99.90
2019-03-13T22:31:46.786Z,99.90
2019-03-13T22:34:15.423Z,99.90
2019-03-13T22:36:40.579Z,99.90
2019-03-13T22:39:06.719Z,99.90
2019-03-13T22:41:32.674Z,99.90
2019-03-13T22:43:58.623Z,99.90
2019-03-13T22:46:24.553Z,99.90
2019-03-13T22:48:58.113Z,99.90
2019-03-13T22:51:18.343Z,99.90
2019-03-13T22:53:44.291Z,99.90
2019-03-13T22:56:10.227Z,99.90
2019-03-13T22:58:36.183Z,99.90
2019-03-13T23:01:05.836Z,99.90
2019-03-13T23:03:31.798Z,99.90
2019-03-13T23:05:57.937Z,99.90
2019-03-13T23:08:23.871Z,99.90
2019-03-13T23:10:49.827Z,99.90
2019-03-13T23:13:17.440Z,99.90
2019-03-13T23:21:52.835Z,99.90
2019-03-13T23:24:18.825Z,99.90
2019-03-13T23:26:44.753Z,99.90
2019-03-13T23:29:10.794Z,99.90
2019-03-13T23:31:36.764Z,99.90
2019-03-13T23:34:02.703Z,99.90
2019-03-13T23:36:28.655Z,99.90
2019-03-13T23:38:54.602Z,99.90
2019-03-13T23:41:20.539Z,99.90
2019-03-13T23:43:46.478Z,99.90
2019-03-13T23:46:12.429Z,99.90
2019-03-13T23:48:38.379Z,99.90
2019-03-13T23:51:04.333Z,99.90
2019-03-13T23:53:30.279Z,99.90
2019-03-13T23:55:56.227Z,99.90
2019-03-13T23:58:22.163Z,99.90
